Pagrindinis puslapis
METAR-TAF:

METAR-TAF

Oro uostai :

Medina, Saudo Arabija

platuma: 24-33N, ilguma: 039-42E, Aukštis: 654 m

Dabartinis oras

Ataskaita buvo paskelbta 40 minutes, ne 10:00 UTC
Vėjas 8 kt iš Pietų/Pietryčių
Temperatūra 37°C
Drėgmė 10%
Slėgis 1017 hPa
Matomumas 10 km arba daugiau
nėra debesų žemiau 1500 m ir nėra kamuolinių lietaus debesų

METAR: OEMA 141000Z 16008KT CAVOK 37/01 Q1017 NOSIG

Laikas: 13:40 (10:40 UTC)

Prognozė

Ataskaita buvo paskelbta 5 valandos ir 40 minutes, ne 05:00 UTC
Prognozė galioja nuo 14 metu 06 UTC su 15 metu 12 UTC
Vėjas 12 kt iš Rytų
Matomumas 10 km arba daugiau
Mažai debesys ne aukštis 4500 ft
Išsisklaidę debesys ne aukštis 10000 ft

TAF: OEMA 140500Z 1406/1512 10012KT 9999 FEW045 SCT100

Orai ataskaitas ir orų prognozės (METAR, TAF).

turimą stotys yra geltonos ir raudonos taškus žemėlapyje.

Perkelti pele per norėdami pamatyti stoties vardą.

Tada spustelėkite, norėdami matyti oro stebėjimo ir prognozės.

Norėdami pakeisti žemėlapį: spustelėkite ant žalios mygtukų su juodo kryžiaus žemyn,; žalią mygtuką su brūkšneliu, jei norite nutolinti; arba žalių rodyklių gretimoms žemėlapius.


METAR-TAF: